Terminal Aerodrome Forecast
Issued by NWS

Home | Current Version | Previous Version | Text Only | Print | Product List | Glossary On
Versions: 1 2 3 4 5 6 7 8 9 10 11 12
530
FTUS46 KSTO 240533
TAFRDD
TAF
KRDD 240533Z 2406/2506 VRB04KT P6SM FEW250
     FM242100 20006KT P6SM BKN250=

USA.gov is the U.S. government's official web portal to all federal, state and local government web resources and services.